Portada
METAR-TAF:

METAR-TAF

Aeroports :

Shenzhen, Xina

latitud: 22-33N, longitud: 114-06E, altitud: 18 m

Observació

L'informe es va fer fa 44 minuts, a les 08:00 UTC
Vent 10 kt del Sud/Sud-Oest
Temperatura 30°C
Humitat 79%
Pressió 1011 hPa
Visibilitat 10 km o més
Escasses núvols a una alçada de 2000 ft

METAR: ZGSZ 230800Z 20005MPS 9999 FEW020 30/26 Q1011 NOSIG

Hora: 16:44 (08:44 UTC)

Pronòstic

L'informe es va fer fa 5 hores i 35 minuts, a les 03:09 UTC
Pronòstic vàlid del 23 a les 06 UTC al 24 a les 06 UTC
Vent 8 kt del Sud
Visibilitat: 6000 m
Escasses núvols a una alçada de 3000 ft
Temporalment
l' 23 a les 06 UTC al 23 a les 10 UTC
Escasses núvols a una alçada de 3000 ft
Escasses núvols a una alçada de 3000 ft, Cumulonimbus.

TAF: ZGSZ 230309Z 2306/2406 18004MPS 6000 FEW030 TX32/2306Z TN28/2322Z TEMPO 2306/2310 FEW030 FEW030CB

Observacions i pronòstics meteorològics de més de 4000 aeroports (METAR i TAF).

Les estacions disponibles són els punts grocs i vermells al mapa.

Posi el ratolí al punt desitjat per veure el nom de l'estació.

Feu clic per veure les observacions i els pronòstics meteorològics.

Per canviar el mapa: feu clic els botons verds amb una creu de color negre per apropar; al botó verd amb un guió per allunyar la imatge; o en les fletxes verdes per a mapes adjacents.


METAR-TAF: